sensor_id;sensor_type;location;lat;lon;timestamp;temperature;humidity
53410;DHT22;66590;50.734;4.246;2023-02-28T00:02:25;2.30;99.90
53410;DHT22;66590;50.734;4.246;2023-02-28T00:04:53;2.40;99.90
53410;DHT22;66590;50.734;4.246;2023-02-28T00:07:21;2.40;99.90
53410;DHT22;66590;50.734;4.246;2023-02-28T00:09:48;2.20;99.90
53410;DHT22;66590;50.734;4.246;2023-02-28T00:12:15;2.20;99.90
53410;DHT22;66590;50.734;4.246;2023-02-28T00:14:42;2.20;99.90
53410;DHT22;66590;50.734;4.246;2023-02-28T00:17:09;2.10;99.90
53410;DHT22;66590;50.734;4.246;2023-02-28T00:19:37;2.20;99.90
53410;DHT22;66590;50.734;4.246;2023-02-28T00:22:04;2.10;99.90
53410;DHT22;66590;50.734;4.246;2023-02-28T00:24:32;2.10;99.90
53410;DHT22;66590;50.734;4.246;2023-02-28T00:26:59;2.10;99.90
53410;DHT22;66590;50.734;4.246;2023-02-28T00:29:26;2.10;99.90
53410;DHT22;66590;50.734;4.246;2023-02-28T00:31:53;2.00;99.90
53410;DHT22;66590;50.734;4.246;2023-02-28T00:34:20;2.00;99.90
53410;DHT22;66590;50.734;4.246;2023-02-28T00:36:47;1.90;99.90
53410;DHT22;66590;50.734;4.246;2023-02-28T00:39:15;1.90;99.90
53410;DHT22;66590;50.734;4.246;2023-02-28T00:41:44;1.90;99.90
53410;DHT22;66590;50.734;4.246;2023-02-28T00:44:11;1.90;99.90
53410;DHT22;66590;50.734;4.246;2023-02-28T00:46:38;1.90;99.90
53410;DHT22;66590;50.734;4.246;2023-02-28T00:49:05;2.00;99.90
53410;DHT22;66590;50.734;4.246;2023-02-28T00:51:32;1.90;99.90
53410;DHT22;66590;50.734;4.246;2023-02-28T00:53:59;1.90;99.90
53410;DHT22;66590;50.734;4.246;2023-02-28T00:56:26;1.90;99.90
53410;DHT22;66590;50.734;4.246;2023-02-28T00:58:54;1.80;99.90
53410;DHT22;66590;50.734;4.246;2023-02-28T01:01:21;1.70;99.90
53410;DHT22;66590;50.734;4.246;2023-02-28T01:03:49;1.70;99.90
53410;DHT22;66590;50.734;4.246;2023-02-28T01:06:16;1.80;99.90
53410;DHT22;66590;50.734;4.246;2023-02-28T01:08:43;1.70;99.90
53410;DHT22;66590;50.734;4.246;2023-02-28T01:11:12;1.80;99.90
53410;DHT22;66590;50.734;4.246;2023-02-28T01:13:41;1.70;99.90
53410;DHT22;66590;50.734;4.246;2023-02-28T01:16:09;1.70;99.90
53410;DHT22;66590;50.734;4.246;2023-02-28T01:18:37;1.60;99.90
53410;DHT22;66590;50.734;4.246;2023-02-28T01:21:05;1.60;99.90
53410;DHT22;66590;50.734;4.246;2023-02-28T01:23:32;1.70;99.90
53410;DHT22;66590;50.734;4.246;2023-02-28T01:26:04;1.70;99.90
53410;DHT22;66590;50.734;4.246;2023-02-28T01:28:31;1.70;99.90
53410;DHT22;66590;50.734;4.246;2023-02-28T01:30:58;1.60;99.90
53410;DHT22;66590;50.734;4.246;2023-02-28T01:33:28;1.60;99.90
53410;DHT22;66590;50.734;4.246;2023-02-28T01:35:59;1.60;99.90
53410;DHT22;66590;50.734;4.246;2023-02-28T01:38:26;1.50;99.90
53410;DHT22;66590;50.734;4.246;2023-02-28T01:40:53;1.60;99.90
53410;DHT22;66590;50.734;4.246;2023-02-28T01:43:23;1.70;99.90
53410;DHT22;66590;50.734;4.246;2023-02-28T01:45:51;1.60;99.90
53410;DHT22;66590;50.734;4.246;2023-02-28T01:48:20;1.60;99.90
53410;DHT22;66590;50.734;4.246;2023-02-28T01:50:49;1.60;99.90
53410;DHT22;66590;50.734;4.246;2023-02-28T01:53:21;1.50;99.90
53410;DHT22;66590;50.734;4.246;2023-02-28T01:55:52;1.40;99.90
53410;DHT22;66590;50.734;4.246;2023-02-28T01:58:20;1.40;99.90
53410;DHT22;66590;50.734;4.246;2023-02-28T02:00:47;1.40;99.90
53410;DHT22;66590;50.734;4.246;2023-02-28T02:03:16;1.40;99.90
53410;DHT22;66590;50.734;4.246;2023-02-28T02:05:44;1.50;99.90
53410;DHT22;66590;50.734;4.246;2023-02-28T02:08:16;1.50;99.90
53410;DHT22;66590;50.734;4.246;2023-02-28T02:10:45;1.50;99.90
53410;DHT22;66590;50.734;4.246;2023-02-28T02:13:43;1.40;99.90
53410;DHT22;66590;50.734;4.246;2023-02-28T02:16:29;1.40;99.90
53410;DHT22;66590;50.734;4.246;2023-02-28T02:19:08;1.40;99.90
53410;DHT22;66590;50.734;4.246;2023-02-28T02:21:59;1.40;99.90
53410;DHT22;66590;50.734;4.246;2023-02-28T02:25:03;1.30;99.90
53410;DHT22;66590;50.734;4.246;2023-02-28T02:27:45;1.20;99.90
53410;DHT22;66590;50.734;4.246;2023-02-28T02:30:47;1.10;99.90
53410;DHT22;66590;50.734;4.246;2023-02-28T02:36:27;1.30;99.90
53410;DHT22;66590;50.734;4.246;2023-02-28T02:39:04;1.40;99.90
53410;DHT22;66590;50.734;4.246;2023-02-28T02:41:36;1.30;99.90
53410;DHT22;66590;50.734;4.246;2023-02-28T02:44:07;1.30;99.90
53410;DHT22;66590;50.734;4.246;2023-02-28T02:46:39;1.20;99.90
53410;DHT22;66590;50.734;4.246;2023-02-28T02:49:10;1.10;99.90
53410;DHT22;66590;50.734;4.246;2023-02-28T02:51:41;1.10;99.90
53410;DHT22;66590;50.734;4.246;2023-02-28T02:54:12;1.20;99.90
53410;DHT22;66590;50.734;4.246;2023-02-28T02:56:44;1.20;99.90
53410;DHT22;66590;50.734;4.246;2023-02-28T02:59:16;1.20;99.90
53410;DHT22;66590;50.734;4.246;2023-02-28T03:01:44;1.10;99.90
53410;DHT22;66590;50.734;4.246;2023-02-28T03:04:15;1.10;99.90
53410;DHT22;66590;50.734;4.246;2023-02-28T03:06:44;1.10;99.90
53410;DHT22;66590;50.734;4.246;2023-02-28T03:09:11;1.10;99.90
53410;DHT22;66590;50.734;4.246;2023-02-28T03:11:40;1.20;99.90
53410;DHT22;66590;50.734;4.246;2023-02-28T03:14:18;1.30;99.90
53410;DHT22;66590;50.734;4.246;2023-02-28T03:17:04;1.30;99.90
53410;DHT22;66590;50.734;4.246;2023-02-28T03:19:47;1.40;99.90
53410;DHT22;66590;50.734;4.246;2023-02-28T03:22:39;1.30;99.90
53410;DHT22;66590;50.734;4.246;2023-02-28T03:25:11;1.20;99.90
53410;DHT22;66590;50.734;4.246;2023-02-28T03:27:42;1.20;99.90
53410;DHT22;66590;50.734;4.246;2023-02-28T03:30:17;1.00;99.90
53410;DHT22;66590;50.734;4.246;2023-02-28T03:32:54;0.90;99.90
53410;DHT22;66590;50.734;4.246;2023-02-28T03:35:24;0.80;99.90
53410;DHT22;66590;50.734;4.246;2023-02-28T03:38:00;0.80;99.90
53410;DHT22;66590;50.734;4.246;2023-02-28T03:40:32;0.80;99.90
53410;DHT22;66590;50.734;4.246;2023-02-28T03:43:03;0.80;99.90
53410;DHT22;66590;50.734;4.246;2023-02-28T03:45:35;0.70;99.90
53410;DHT22;66590;50.734;4.246;2023-02-28T03:48:08;0.70;99.90
53410;DHT22;66590;50.734;4.246;2023-02-28T03:50:39;0.80;99.90
53410;DHT22;66590;50.734;4.246;2023-02-28T03:53:13;0.70;99.90
53410;DHT22;66590;50.734;4.246;2023-02-28T03:55:42;0.70;99.90
53410;DHT22;66590;50.734;4.246;2023-02-28T03:58:14;0.80;99.90
53410;DHT22;66590;50.734;4.246;2023-02-28T04:00:46;0.80;99.90
53410;DHT22;66590;50.734;4.246;2023-02-28T04:03:14;0.80;99.90
53410;DHT22;66590;50.734;4.246;2023-02-28T04:05:48;0.70;99.90
53410;DHT22;66590;50.734;4.246;2023-02-28T04:08:17;0.60;99.90
53410;DHT22;66590;50.734;4.246;2023-02-28T04:10:48;0.70;99.90
53410;DHT22;66590;50.734;4.246;2023-02-28T04:13:16;0.60;99.90
53410;DHT22;66590;50.734;4.246;2023-02-28T04:15:43;0.60;99.90
53410;DHT22;66590;50.734;4.246;2023-02-28T04:18:11;0.50;99.90
53410;DHT22;66590;50.734;4.246;2023-02-28T04:20:38;0.50;99.90
53410;DHT22;66590;50.734;4.246;2023-02-28T04:23:05;0.50;99.90
53410;DHT22;66590;50.734;4.246;2023-02-28T04:25:40;0.50;99.90
53410;DHT22;66590;50.734;4.246;2023-02-28T04:28:07;0.50;99.90
53410;DHT22;66590;50.734;4.246;2023-02-28T04:30:40;0.40;99.90
53410;DHT22;66590;50.734;4.246;2023-02-28T04:33:07;0.40;99.90
53410;DHT22;66590;50.734;4.246;2023-02-28T04:35:41;0.50;99.90
53410;DHT22;66590;50.734;4.246;2023-02-28T04:38:09;0.50;99.90
53410;DHT22;66590;50.734;4.246;2023-02-28T04:40:44;0.50;99.90
53410;DHT22;66590;50.734;4.246;2023-02-28T04:43:11;0.50;99.90
53410;DHT22;66590;50.734;4.246;2023-02-28T04:45:44;0.50;99.90
53410;DHT22;66590;50.734;4.246;2023-02-28T04:48:11;0.40;99.90
53410;DHT22;66590;50.734;4.246;2023-02-28T04:50:48;0.40;99.90
53410;DHT22;66590;50.734;4.246;2023-02-28T04:53:15;0.40;99.90
53410;DHT22;66590;50.734;4.246;2023-02-28T04:55:50;0.40;99.90
53410;DHT22;66590;50.734;4.246;2023-02-28T04:58:17;0.50;99.90
53410;DHT22;66590;50.734;4.246;2023-02-28T05:00:51;0.50;99.90
53410;DHT22;66590;50.734;4.246;2023-02-28T05:03:18;0.40;99.90
53410;DHT22;66590;50.734;4.246;2023-02-28T05:05:53;0.50;99.90
53410;DHT22;66590;50.734;4.246;2023-02-28T05:08:20;0.50;99.90
53410;DHT22;66590;50.734;4.246;2023-02-28T05:10:56;0.50;99.90
53410;DHT22;66590;50.734;4.246;2023-02-28T05:13:23;0.50;99.90
53410;DHT22;66590;50.734;4.246;2023-02-28T05:15:56;0.50;99.90
53410;DHT22;66590;50.734;4.246;2023-02-28T05:18:23;0.60;99.90
53410;DHT22;66590;50.734;4.246;2023-02-28T05:20:57;0.50;99.90
53410;DHT22;66590;50.734;4.246;2023-02-28T05:23:25;0.60;99.90
53410;DHT22;66590;50.734;4.246;2023-02-28T05:26:00;0.70;99.90
53410;DHT22;66590;50.734;4.246;2023-02-28T05:28:27;0.60;99.90
53410;DHT22;66590;50.734;4.246;2023-02-28T05:31:01;0.70;99.90
53410;DHT22;66590;50.734;4.246;2023-02-28T05:33:28;0.80;99.90
53410;DHT22;66590;50.734;4.246;2023-02-28T05:36:01;0.70;99.90
53410;DHT22;66590;50.734;4.246;2023-02-28T05:38:28;0.60;99.90
53410;DHT22;66590;50.734;4.246;2023-02-28T05:41:07;0.60;99.90
53410;DHT22;66590;50.734;4.246;2023-02-28T05:43:34;0.60;99.90
53410;DHT22;66590;50.734;4.246;2023-02-28T05:46:10;0.70;99.90
53410;DHT22;66590;50.734;4.246;2023-02-28T05:48:39;0.70;99.90
53410;DHT22;66590;50.734;4.246;2023-02-28T05:51:14;0.80;99.90
53410;DHT22;66590;50.734;4.246;2023-02-28T05:53:41;0.80;99.90
53410;DHT22;66590;50.734;4.246;2023-02-28T05:56:16;0.80;99.90
53410;DHT22;66590;50.734;4.246;2023-02-28T05:58:43;0.80;99.90
53410;DHT22;66590;50.734;4.246;2023-02-28T06:01:21;0.90;99.90
53410;DHT22;66590;50.734;4.246;2023-02-28T06:03:49;0.80;99.90
53410;DHT22;66590;50.734;4.246;2023-02-28T06:06:23;0.80;99.90
53410;DHT22;66590;50.734;4.246;2023-02-28T06:08:50;0.90;99.90
53410;DHT22;66590;50.734;4.246;2023-02-28T06:11:26;0.90;99.90
53410;DHT22;66590;50.734;4.246;2023-02-28T06:13:54;1.10;99.90
53410;DHT22;66590;50.734;4.246;2023-02-28T06:16:29;1.20;99.90
53410;DHT22;66590;50.734;4.246;2023-02-28T06:18:57;1.00;99.90
53410;DHT22;66590;50.734;4.246;2023-02-28T06:21:32;1.00;99.90
53410;DHT22;66590;50.734;4.246;2023-02-28T06:23:59;1.00;99.90
53410;DHT22;66590;50.734;4.246;2023-02-28T06:26:35;1.00;99.90
53410;DHT22;66590;50.734;4.246;2023-02-28T06:29:02;1.00;99.90
53410;DHT22;66590;50.734;4.246;2023-02-28T06:31:37;1.00;99.90
53410;DHT22;66590;50.734;4.246;2023-02-28T06:34:04;1.10;99.90
53410;DHT22;66590;50.734;4.246;2023-02-28T06:36:39;1.10;99.90
53410;DHT22;66590;50.734;4.246;2023-02-28T06:39:07;1.10;99.90
53410;DHT22;66590;50.734;4.246;2023-02-28T06:41:42;1.10;99.90
53410;DHT22;66590;50.734;4.246;2023-02-28T06:44:22;1.20;99.90
53410;DHT22;66590;50.734;4.246;2023-02-28T06:46:49;1.20;99.90
53410;DHT22;66590;50.734;4.246;2023-02-28T06:49:16;1.40;99.90
53410;DHT22;66590;50.734;4.246;2023-02-28T06:51:44;1.40;99.90
53410;DHT22;66590;50.734;4.246;2023-02-28T06:54:12;1.40;99.90
53410;DHT22;66590;50.734;4.246;2023-02-28T06:56:39;1.30;99.90
53410;DHT22;66590;50.734;4.246;2023-02-28T06:59:08;1.40;99.90
53410;DHT22;66590;50.734;4.246;2023-02-28T07:01:35;1.40;99.90
53410;DHT22;66590;50.734;4.246;2023-02-28T07:04:02;1.40;99.90
53410;DHT22;66590;50.734;4.246;2023-02-28T07:06:29;1.50;99.90
53410;DHT22;66590;50.734;4.246;2023-02-28T07:08:57;1.50;99.90
53410;DHT22;66590;50.734;4.246;2023-02-28T07:11:26;1.60;99.90
53410;DHT22;66590;50.734;4.246;2023-02-28T07:13:54;1.60;99.90
53410;DHT22;66590;50.734;4.246;2023-02-28T07:16:25;1.70;99.90
53410;DHT22;66590;50.734;4.246;2023-02-28T07:18:53;1.80;99.90
53410;DHT22;66590;50.734;4.246;2023-02-28T07:21:20;1.90;99.90
53410;DHT22;66590;50.734;4.246;2023-02-28T07:23:49;1.90;99.90
53410;DHT22;66590;50.734;4.246;2023-02-28T07:26:18;2.00;99.90
53410;DHT22;66590;50.734;4.246;2023-02-28T07:28:47;2.10;99.90
53410;DHT22;66590;50.734;4.246;2023-02-28T07:31:15;2.20;99.90
53410;DHT22;66590;50.734;4.246;2023-02-28T07:33:44;2.30;99.90
53410;DHT22;66590;50.734;4.246;2023-02-28T07:36:13;2.30;99.90
53410;DHT22;66590;50.734;4.246;2023-02-28T07:38:40;2.50;99.90
53410;DHT22;66590;50.734;4.246;2023-02-28T07:41:07;2.50;99.90
53410;DHT22;66590;50.734;4.246;2023-02-28T07:43:34;2.70;99.90
53410;DHT22;66590;50.734;4.246;2023-02-28T07:46:03;2.60;99.90
53410;DHT22;66590;50.734;4.246;2023-02-28T07:48:30;2.60;99.90
53410;DHT22;66590;50.734;4.246;2023-02-28T07:50:59;2.50;99.90
53410;DHT22;66590;50.734;4.246;2023-02-28T07:53:26;2.40;99.90
53410;DHT22;66590;50.734;4.246;2023-02-28T07:55:55;2.30;99.90
53410;DHT22;66590;50.734;4.246;2023-02-28T07:58:23;2.30;99.90
53410;DHT22;66590;50.734;4.246;2023-02-28T08:00:51;2.20;99.90
53410;DHT22;66590;50.734;4.246;2023-02-28T08:03:20;2.30;99.90
53410;DHT22;66590;50.734;4.246;2023-02-28T08:05:48;2.20;99.90
53410;DHT22;66590;50.734;4.246;2023-02-28T08:08:16;2.20;99.90
53410;DHT22;66590;50.734;4.246;2023-02-28T08:10:45;2.30;99.90
53410;DHT22;66590;50.734;4.246;2023-02-28T08:13:12;2.20;99.90
53410;DHT22;66590;50.734;4.246;2023-02-28T08:15:41;2.30;99.90
53410;DHT22;66590;50.734;4.246;2023-02-28T08:18:08;2.30;99.90
53410;DHT22;66590;50.734;4.246;2023-02-28T08:20:37;2.40;99.90
53410;DHT22;66590;50.734;4.246;2023-02-28T08:23:04;2.40;99.90
53410;DHT22;66590;50.734;4.246;2023-02-28T08:25:33;2.40;99.90
53410;DHT22;66590;50.734;4.246;2023-02-28T08:28:00;2.50;99.90
53410;DHT22;66590;50.734;4.246;2023-02-28T08:30:27;2.40;99.90
53410;DHT22;66590;50.734;4.246;2023-02-28T08:32:54;2.50;99.90
53410;DHT22;66590;50.734;4.246;2023-02-28T08:35:22;2.50;99.90
53410;DHT22;66590;50.734;4.246;2023-02-28T08:37:49;2.50;99.90
53410;DHT22;66590;50.734;4.246;2023-02-28T08:40:17;2.50;99.90
53410;DHT22;66590;50.734;4.246;2023-02-28T08:42:46;2.50;99.90
53410;DHT22;66590;50.734;4.246;2023-02-28T08:45:14;2.60;99.90
53410;DHT22;66590;50.734;4.246;2023-02-28T08:47:41;2.60;99.90
53410;DHT22;66590;50.734;4.246;2023-02-28T08:50:09;2.60;99.90
53410;DHT22;66590;50.734;4.246;2023-02-28T08:52:36;2.70;99.90
53410;DHT22;66590;50.734;4.246;2023-02-28T08:55:04;2.80;99.90
53410;DHT22;66590;50.734;4.246;2023-02-28T08:57:31;2.80;99.90
53410;DHT22;66590;50.734;4.246;2023-02-28T08:59:59;2.90;99.90
53410;DHT22;66590;50.734;4.246;2023-02-28T09:02:26;3.00;99.90
53410;DHT22;66590;50.734;4.246;2023-02-28T09:04:53;3.10;99.90
53410;DHT22;66590;50.734;4.246;2023-02-28T09:07:20;3.10;99.90
53410;DHT22;66590;50.734;4.246;2023-02-28T09:09:47;3.20;99.90
53410;DHT22;66590;50.734;4.246;2023-02-28T09:12:14;3.40;99.90
53410;DHT22;66590;50.734;4.246;2023-02-28T09:14:41;3.50;99.90
53410;DHT22;66590;50.734;4.246;2023-02-28T09:17:10;3.50;99.90
53410;DHT22;66590;50.734;4.246;2023-02-28T09:19:37;3.60;99.90
53410;DHT22;66590;50.734;4.246;2023-02-28T09:22:04;3.60;99.90
53410;DHT22;66590;50.734;4.246;2023-02-28T09:24:31;3.80;99.90
53410;DHT22;66590;50.734;4.246;2023-02-28T09:26:58;4.00;99.90
53410;DHT22;66590;50.734;4.246;2023-02-28T09:29:32;4.10;99.90
53410;DHT22;66590;50.734;4.246;2023-02-28T09:31:59;4.20;99.90
53410;DHT22;66590;50.734;4.246;2023-02-28T09:34:28;4.30;99.90
53410;DHT22;66590;50.734;4.246;2023-02-28T09:36:55;4.40;99.90
53410;DHT22;66590;50.734;4.246;2023-02-28T09:39:22;4.60;99.90
53410;DHT22;66590;50.734;4.246;2023-02-28T09:41:52;4.60;99.90
53410;DHT22;66590;50.734;4.246;2023-02-28T09:44:26;4.60;99.90
53410;DHT22;66590;50.734;4.246;2023-02-28T09:46:57;4.60;99.90
53410;DHT22;66590;50.734;4.246;2023-02-28T09:49:28;4.70;99.90
53410;DHT22;66590;50.734;4.246;2023-02-28T09:52:00;4.80;99.90
53410;DHT22;66590;50.734;4.246;2023-02-28T09:54:30;5.00;99.90
53410;DHT22;66590;50.734;4.246;2023-02-28T09:57:00;5.20;99.90
53410;DHT22;66590;50.734;4.246;2023-02-28T09:59:44;5.00;97.90
53410;DHT22;66590;50.734;4.246;2023-02-28T10:02:41;5.00;98.80
53410;DHT22;66590;50.734;4.246;2023-02-28T10:05:14;5.00;97.50
53410;DHT22;66590;50.734;4.246;2023-02-28T10:07:51;5.20;98.60
53410;DHT22;66590;50.734;4.246;2023-02-28T10:10:22;5.30;96.90
53410;DHT22;66590;50.734;4.246;2023-02-28T10:12:53;5.50;96.10
53410;DHT22;66590;50.734;4.246;2023-02-28T10:15:24;5.60;93.90
53410;DHT22;66590;50.734;4.246;2023-02-28T10:17:56;5.60;94.40
53410;DHT22;66590;50.734;4.246;2023-02-28T10:20:39;5.60;94.20
53410;DHT22;66590;50.734;4.246;2023-02-28T10:23:13;5.50;92.80
53410;DHT22;66590;50.734;4.246;2023-02-28T10:25:41;5.50;93.00
53410;DHT22;66590;50.734;4.246;2023-02-28T10:28:13;5.70;93.20
53410;DHT22;66590;50.734;4.246;2023-02-28T10:30:45;5.80;91.80
53410;DHT22;66590;50.734;4.246;2023-02-28T10:33:19;5.70;91.60
53410;DHT22;66590;50.734;4.246;2023-02-28T10:35:48;5.90;91.90
53410;DHT22;66590;50.734;4.246;2023-02-28T10:38:19;5.90;90.00
53410;DHT22;66590;50.734;4.246;2023-02-28T10:40:46;5.90;90.10
53410;DHT22;66590;50.734;4.246;2023-02-28T10:43:21;5.90;90.20
53410;DHT22;66590;50.734;4.246;2023-02-28T10:45:58;6.10;90.10
53410;DHT22;66590;50.734;4.246;2023-02-28T10:48:37;5.90;88.20
53410;DHT22;66590;50.734;4.246;2023-02-28T10:51:07;6.00;88.50
53410;DHT22;66590;50.734;4.246;2023-02-28T10:53:39;6.30;87.80
53410;DHT22;66590;50.734;4.246;2023-02-28T10:56:27;6.40;85.20
53410;DHT22;66590;50.734;4.246;2023-02-28T10:58:58;6.30;86.30
53410;DHT22;66590;50.734;4.246;2023-02-28T11:01:38;6.10;83.80
53410;DHT22;66590;50.734;4.246;2023-02-28T11:04:17;6.20;84.10
53410;DHT22;66590;50.734;4.246;2023-02-28T11:06:46;6.10;82.30
53410;DHT22;66590;50.734;4.246;2023-02-28T11:09:30;6.20;83.30
53410;DHT22;66590;50.734;4.246;2023-02-28T11:12:00;6.60;83.70
53410;DHT22;66590;50.734;4.246;2023-02-28T11:14:29;6.80;81.50
53410;DHT22;66590;50.734;4.246;2023-02-28T11:17:00;6.70;80.90
53410;DHT22;66590;50.734;4.246;2023-02-28T11:19:33;6.70;80.60
53410;DHT22;66590;50.734;4.246;2023-02-28T11:22:04;6.70;80.70
53410;DHT22;66590;50.734;4.246;2023-02-28T11:24:34;6.80;79.70
53410;DHT22;66590;50.734;4.246;2023-02-28T11:27:03;6.90;79.00
53410;DHT22;66590;50.734;4.246;2023-02-28T11:29:32;6.60;78.10
53410;DHT22;66590;50.734;4.246;2023-02-28T11:35:01;6.50;77.50
53410;DHT22;66590;50.734;4.246;2023-02-28T11:37:31;6.40;75.60
53410;DHT22;66590;50.734;4.246;2023-02-28T11:39:59;6.50;78.50
53410;DHT22;66590;50.734;4.246;2023-02-28T11:42:46;6.50;77.00
53410;DHT22;66590;50.734;4.246;2023-02-28T11:45:31;6.40;77.00
53410;DHT22;66590;50.734;4.246;2023-02-28T11:48:10;6.20;78.10
53410;DHT22;66590;50.734;4.246;2023-02-28T11:50:45;6.20;78.30
53410;DHT22;66590;50.734;4.246;2023-02-28T11:53:23;6.20;79.60
53410;DHT22;66590;50.734;4.246;2023-02-28T11:55:57;6.20;80.20
53410;DHT22;66590;50.734;4.246;2023-02-28T11:58:32;6.30;77.80
53410;DHT22;66590;50.734;4.246;2023-02-28T12:01:13;6.50;78.30
53410;DHT22;66590;50.734;4.246;2023-02-28T12:03:45;6.40;79.30
53410;DHT22;66590;50.734;4.246;2023-02-28T12:06:23;6.40;80.50
53410;DHT22;66590;50.734;4.246;2023-02-28T12:09:04;6.50;82.20
53410;DHT22;66590;50.734;4.246;2023-02-28T12:11:47;6.50;77.90
53410;DHT22;66590;50.734;4.246;2023-02-28T12:14:29;6.30;79.60
53410;DHT22;66590;50.734;4.246;2023-02-28T12:17:11;6.50;78.30
53410;DHT22;66590;50.734;4.246;2023-02-28T12:19:47;6.70;78.90
53410;DHT22;66590;50.734;4.246;2023-02-28T12:22:27;7.00;78.00
53410;DHT22;66590;50.734;4.246;2023-02-28T12:25:18;6.80;76.90
53410;DHT22;66590;50.734;4.246;2023-02-28T12:27:48;6.60;78.40
53410;DHT22;66590;50.734;4.246;2023-02-28T12:30:19;6.60;79.70
53410;DHT22;66590;50.734;4.246;2023-02-28T12:32:51;6.80;79.70
53410;DHT22;66590;50.734;4.246;2023-02-28T12:35:23;7.10;77.40
53410;DHT22;66590;50.734;4.246;2023-02-28T12:37:56;6.80;75.00
53410;DHT22;66590;50.734;4.246;2023-02-28T12:40:30;6.70;76.00
53410;DHT22;66590;50.734;4.246;2023-02-28T12:43:04;6.70;74.30
53410;DHT22;66590;50.734;4.246;2023-02-28T12:45:40;6.70;75.20
53410;DHT22;66590;50.734;4.246;2023-02-28T12:48:13;6.80;75.60
53410;DHT22;66590;50.734;4.246;2023-02-28T12:50:42;7.00;75.70
53410;DHT22;66590;50.734;4.246;2023-02-28T12:53:15;6.90;76.00
53410;DHT22;66590;50.734;4.246;2023-02-28T12:55:50;6.80;75.80
53410;DHT22;66590;50.734;4.246;2023-02-28T12:58:26;6.80;74.60
53410;DHT22;66590;50.734;4.246;2023-02-28T13:01:13;6.50;73.00
53410;DHT22;66590;50.734;4.246;2023-02-28T13:04:08;6.20;74.90
53410;DHT22;66590;50.734;4.246;2023-02-28T13:06:56;6.20;74.40
53410;DHT22;66590;50.734;4.246;2023-02-28T13:09:26;6.00;74.50
53410;DHT22;66590;50.734;4.246;2023-02-28T13:11:56;6.00;74.70
53410;DHT22;66590;50.734;4.246;2023-02-28T13:14:27;6.10;74.70
53410;DHT22;66590;50.734;4.246;2023-02-28T13:17:01;6.30;74.70
53410;DHT22;66590;50.734;4.246;2023-02-28T13:19:30;6.40;73.00
53410;DHT22;66590;50.734;4.246;2023-02-28T13:21:59;6.40;75.70
53410;DHT22;66590;50.734;4.246;2023-02-28T13:24:45;6.40;75.00
53410;DHT22;66590;50.734;4.246;2023-02-28T13:27:24;6.30;75.90
53410;DHT22;66590;50.734;4.246;2023-02-28T13:29:58;6.50;76.60
53410;DHT22;66590;50.734;4.246;2023-02-28T13:32:35;6.60;74.00
53410;DHT22;66590;50.734;4.246;2023-02-28T13:38:23;6.80;77.60
53410;DHT22;66590;50.734;4.246;2023-02-28T13:40:50;6.70;74.30
53410;DHT22;66590;50.734;4.246;2023-02-28T13:43:18;6.70;74.50
53410;DHT22;66590;50.734;4.246;2023-02-28T13:46:12;6.80;75.20
53410;DHT22;66590;50.734;4.246;2023-02-28T13:48:41;6.40;74.00
53410;DHT22;66590;50.734;4.246;2023-02-28T13:51:37;6.30;75.10
53410;DHT22;66590;50.734;4.246;2023-02-28T13:54:11;6.30;73.60
53410;DHT22;66590;50.734;4.246;2023-02-28T13:56:46;6.20;74.30
53410;DHT22;66590;50.734;4.246;2023-02-28T13:59:25;6.10;75.30
53410;DHT22;66590;50.734;4.246;2023-02-28T14:02:03;6.20;74.40
53410;DHT22;66590;50.734;4.246;2023-02-28T14:05:04;6.00;74.60
53410;DHT22;66590;50.734;4.246;2023-02-28T14:07:41;5.90;75.50
53410;DHT22;66590;50.734;4.246;2023-02-28T14:10:22;6.00;75.90
53410;DHT22;66590;50.734;4.246;2023-02-28T14:12:58;6.10;74.20
53410;DHT22;66590;50.734;4.246;2023-02-28T14:15:39;6.20;74.40
53410;DHT22;66590;50.734;4.246;2023-02-28T14:18:21;6.20;74.40
53410;DHT22;66590;50.734;4.246;2023-02-28T14:20:55;6.30;74.60
53410;DHT22;66590;50.734;4.246;2023-02-28T14:23:50;6.10;73.00
53410;DHT22;66590;50.734;4.246;2023-02-28T14:26:53;6.10;72.90
53410;DHT22;66590;50.734;4.246;2023-02-28T14:29:35;6.00;73.60
53410;DHT22;66590;50.734;4.246;2023-02-28T14:32:17;5.80;74.40
53410;DHT22;66590;50.734;4.246;2023-02-28T14:34:50;6.00;74.60
53410;DHT22;66590;50.734;4.246;2023-02-28T14:37:23;6.10;74.50
53410;DHT22;66590;50.734;4.246;2023-02-28T14:39:53;6.20;73.90
53410;DHT22;66590;50.734;4.246;2023-02-28T14:42:31;6.10;73.80
53410;DHT22;66590;50.734;4.246;2023-02-28T14:44:59;6.00;75.50
53410;DHT22;66590;50.734;4.246;2023-02-28T14:47:30;5.80;73.40
53410;DHT22;66590;50.734;4.246;2023-02-28T14:49:59;5.80;73.90
53410;DHT22;66590;50.734;4.246;2023-02-28T14:52:27;5.90;75.40
53410;DHT22;66590;50.734;4.246;2023-02-28T14:54:57;5.90;73.70
53410;DHT22;66590;50.734;4.246;2023-02-28T14:57:26;5.90;73.10
53410;DHT22;66590;50.734;4.246;2023-02-28T15:00:01;5.90;74.00
53410;DHT22;66590;50.734;4.246;2023-02-28T15:02:33;5.90;73.20
53410;DHT22;66590;50.734;4.246;2023-02-28T15:05:09;5.80;74.40
53410;DHT22;66590;50.734;4.246;2023-02-28T15:07:37;6.00;74.80
53410;DHT22;66590;50.734;4.246;2023-02-28T15:10:10;6.00;74.50
53410;DHT22;66590;50.734;4.246;2023-02-28T15:12:39;6.00;74.00
53410;DHT22;66590;50.734;4.246;2023-02-28T15:15:15;6.00;75.50
53410;DHT22;66590;50.734;4.246;2023-02-28T15:17:46;6.10;74.00
53410;DHT22;66590;50.734;4.246;2023-02-28T15:20:17;6.10;73.10
53410;DHT22;66590;50.734;4.246;2023-02-28T15:22:46;5.80;73.60
53410;DHT22;66590;50.734;4.246;2023-02-28T15:25:18;5.80;73.10
53410;DHT22;66590;50.734;4.246;2023-02-28T15:27:48;5.70;73.00
53410;DHT22;66590;50.734;4.246;2023-02-28T15:30:17;5.70;72.50
53410;DHT22;66590;50.734;4.246;2023-02-28T15:33:03;5.70;73.40
53410;DHT22;66590;50.734;4.246;2023-02-28T15:35:32;5.70;74.00
53410;DHT22;66590;50.734;4.246;2023-02-28T15:38:02;5.60;73.90
53410;DHT22;66590;50.734;4.246;2023-02-28T15:40:32;5.60;74.00
53410;DHT22;66590;50.734;4.246;2023-02-28T15:43:06;5.70;74.50
53410;DHT22;66590;50.734;4.246;2023-02-28T15:45:36;5.70;74.00
53410;DHT22;66590;50.734;4.246;2023-02-28T15:48:12;5.80;75.20
53410;DHT22;66590;50.734;4.246;2023-02-28T15:50:40;5.60;74.90
53410;DHT22;66590;50.734;4.246;2023-02-28T15:53:13;5.50;74.20
53410;DHT22;66590;50.734;4.246;2023-02-28T15:55:40;5.50;75.90
53410;DHT22;66590;50.734;4.246;2023-02-28T15:58:10;5.40;75.00
53410;DHT22;66590;50.734;4.246;2023-02-28T16:00:38;5.40;75.60
53410;DHT22;66590;50.734;4.246;2023-02-28T16:03:25;5.40;75.40
53410;DHT22;66590;50.734;4.246;2023-02-28T16:08:50;5.50;76.00
53410;DHT22;66590;50.734;4.246;2023-02-28T16:11:18;5.60;77.40
53410;DHT22;66590;50.734;4.246;2023-02-28T16:13:47;5.70;76.50
53410;DHT22;66590;50.734;4.246;2023-02-28T16:16:16;5.70;75.90
53410;DHT22;66590;50.734;4.246;2023-02-28T16:18:45;5.60;76.70
53410;DHT22;66590;50.734;4.246;2023-02-28T16:21:12;5.50;76.80
53410;DHT22;66590;50.734;4.246;2023-02-28T16:23:39;5.40;77.80
53410;DHT22;66590;50.734;4.246;2023-02-28T16:26:06;5.40;77.50
53410;DHT22;66590;50.734;4.246;2023-02-28T16:28:36;5.40;78.20